createdAt,value
2018-12-15T00:00:02.000Z,27.7
2018-12-15T00:01:47.000Z,27.7
2018-12-15T00:03:02.000Z,27.6
2018-12-15T00:04:02.000Z,27.6
2018-12-15T00:06:02.000Z,27.6
2018-12-15T00:07:02.000Z,27.6
2018-12-15T00:09:02.000Z,27.6
2018-12-15T00:10:02.000Z,27.7
2018-12-15T00:11:02.000Z,27.7
2018-12-15T00:13:02.000Z,27.7
2018-12-15T00:14:47.000Z,27.7
2018-12-15T00:16:02.000Z,27.6
2018-12-15T00:17:47.000Z,27.6
2018-12-15T00:19:02.000Z,27.6
2018-12-15T00:20:02.000Z,27.6
2018-12-15T00:21:02.000Z,27.6
2018-12-15T00:23:02.000Z,27.6
2018-12-15T00:24:02.000Z,27.6
2018-12-15T00:25:02.000Z,27.6
2018-12-15T00:26:47.000Z,27.7
2018-12-15T00:28:02.000Z,27.6
2018-12-15T00:29:02.000Z,27.6
2018-12-15T00:31:02.000Z,27.6
2018-12-15T00:32:02.000Z,27.6
2018-12-15T00:34:02.000Z,27.6
2018-12-15T00:36:02.000Z,27.6
2018-12-15T00:37:02.000Z,27.6
2018-12-15T00:39:02.000Z,27.6
2018-12-15T00:40:02.000Z,27.6
2018-12-15T00:41:02.000Z,27.7
2018-12-15T00:43:02.000Z,27.7
2018-12-15T00:44:02.000Z,27.7
2018-12-15T00:46:02.000Z,27.7
2018-12-15T00:47:02.000Z,27.7
2018-12-15T00:48:02.000Z,27.7
2018-12-15T00:49:02.000Z,27.7
2018-12-15T00:51:02.000Z,27.7
2018-12-15T00:52:47.000Z,27.7
2018-12-15T00:54:02.000Z,27.6
2018-12-15T00:56:02.000Z,27.5
2018-12-15T00:58:02.000Z,27.4
2018-12-15T00:59:02.000Z,27.4
2018-12-15T01:00:02.000Z,27.4
2018-12-15T01:01:02.000Z,27.5
2018-12-15T01:03:02.000Z,27.5
2018-12-15T01:04:02.000Z,27.5
2018-12-15T01:06:02.000Z,27.5
2018-12-15T01:08:02.000Z,27.4
2018-12-15T01:09:02.000Z,27.4
2018-12-15T01:10:47.000Z,27.5
2018-12-15T01:12:02.000Z,27.4
2018-12-15T01:13:02.000Z,27.4
2018-12-15T01:14:02.000Z,27.5
2018-12-15T01:16:02.000Z,27.5
2018-12-15T01:17:47.000Z,27.5
2018-12-15T01:19:02.000Z,27.5
2018-12-15T01:20:47.000Z,27.5
2018-12-15T01:22:02.000Z,27.4
2018-12-15T01:24:02.000Z,27.4
2018-12-15T01:25:02.000Z,27.4
2018-12-15T01:27:02.000Z,27.4
2018-12-15T01:29:02.000Z,27.4
2018-12-15T01:30:02.000Z,27.4
2018-12-15T01:31:02.000Z,27.4
2018-12-15T01:32:02.000Z,27.4
2018-12-15T01:33:02.000Z,27.5
2018-12-15T01:34:02.000Z,27.5
2018-12-15T01:36:02.000Z,27.5
2018-12-15T01:38:02.000Z,27.3
2018-12-15T01:39:02.000Z,27.3
2018-12-15T01:41:02.000Z,27.3
2018-12-15T01:42:02.000Z,27.3
2018-12-15T01:44:02.000Z,27.3
2018-12-15T01:45:02.000Z,27.3
2018-12-15T01:46:47.000Z,27.4
2018-12-15T01:48:02.000Z,27.4
2018-12-15T01:50:02.000Z,27.3
2018-12-15T01:51:02.000Z,27.3
2018-12-15T01:53:02.000Z,27.3
2018-12-15T01:54:02.000Z,27.3
2018-12-15T01:56:02.000Z,27.4
2018-12-15T01:58:02.000Z,27.3
2018-12-15T02:00:02.000Z,27.2
2018-12-15T02:02:02.000Z,27.2
2018-12-15T02:04:02.000Z,27.2
2018-12-15T02:06:02.000Z,27.2
2018-12-15T02:07:02.000Z,27.2
2018-12-15T02:08:47.000Z,27.2
2018-12-15T02:10:03.000Z,27.2
2018-12-15T02:11:03.000Z,27.3
2018-12-15T02:13:03.000Z,27.2
2018-12-15T02:14:03.000Z,27.2
2018-12-15T02:16:03.000Z,27.3
2018-12-15T02:17:03.000Z,27.3
2018-12-15T02:19:03.000Z,27.3
2018-12-15T02:20:03.000Z,27.3
2018-12-15T02:21:03.000Z,27.3
2018-12-15T02:23:03.000Z,27.3
2018-12-15T02:25:03.000Z,27.2
2018-12-15T02:26:03.000Z,27.2
2018-12-15T02:27:03.000Z,27.3
2018-12-15T02:28:48.000Z,27.4
2018-12-15T02:30:03.000Z,27.4
2018-12-15T02:31:03.000Z,27.4
2018-12-15T02:33:03.000Z,27.4
2018-12-15T02:34:03.000Z,27.4
2018-12-15T02:36:03.000Z,27.4
2018-12-15T02:38:03.000Z,27.4
2018-12-15T02:39:03.000Z,27.4
2018-12-15T02:41:03.000Z,27.4
2018-12-15T02:42:03.000Z,27.4
2018-12-15T02:43:03.000Z,27.5
2018-12-15T02:45:03.000Z,27.5
2018-12-15T02:47:03.000Z,27.4
2018-12-15T02:48:03.000Z,27.3
2018-12-15T02:50:03.000Z,27.3
2018-12-15T02:51:03.000Z,27.3
2018-12-15T02:53:03.000Z,27.3
2018-12-15T02:54:03.000Z,27.4
2018-12-15T02:56:03.000Z,27.4
2018-12-15T02:58:03.000Z,27.3
2018-12-15T02:59:03.000Z,27.3
2018-12-15T03:00:03.000Z,27.3
2018-12-15T03:02:03.000Z,27.3
2018-12-15T03:04:03.000Z,27.3
2018-12-15T03:06:03.000Z,27.3
2018-12-15T03:07:03.000Z,27.3
2018-12-15T03:09:03.000Z,27.2
2018-12-15T03:11:03.000Z,27.2
2018-12-15T03:13:03.000Z,27.1
2018-12-15T03:15:03.000Z,27.1
2018-12-15T03:17:03.000Z,27.1
2018-12-15T03:19:03.000Z,27
2018-12-15T03:20:03.000Z,27
2018-12-15T03:22:03.000Z,27.1
2018-12-15T03:24:03.000Z,27.1
2018-12-15T03:26:03.000Z,27.1
2018-12-15T03:28:03.000Z,27.1
2018-12-15T03:29:03.000Z,27.1
2018-12-15T03:30:03.000Z,27.1
2018-12-15T03:31:03.000Z,27.2
2018-12-15T03:33:03.000Z,27.2
2018-12-15T03:35:03.000Z,27.2
2018-12-15T03:36:03.000Z,27.2
2018-12-15T03:38:03.000Z,27.3
2018-12-15T03:39:03.000Z,27.3
2018-12-15T03:40:03.000Z,27.3
2018-12-15T03:42:03.000Z,27.4
2018-12-15T03:44:03.000Z,27.4
2018-12-15T03:45:03.000Z,27.4
2018-12-15T03:47:03.000Z,27.4
2018-12-15T03:48:03.000Z,27.4
2018-12-15T03:50:03.000Z,27.4
2018-12-15T03:52:03.000Z,27.3
2018-12-15T03:53:03.000Z,27.3
2018-12-15T03:55:03.000Z,27.3
2018-12-15T03:57:03.000Z,27.2
2018-12-15T03:59:03.000Z,27.1
2018-12-15T04:00:03.000Z,27.1
2018-12-15T04:01:03.000Z,27.1
2018-12-15T04:02:03.000Z,27.2
2018-12-15T04:04:03.000Z,27.2
2018-12-15T04:06:03.000Z,27.2
2018-12-15T04:07:03.000Z,27.3
2018-12-15T04:09:03.000Z,27.2
2018-12-15T04:10:03.000Z,27.2
2018-12-15T04:12:03.000Z,27.2
2018-12-15T04:14:03.000Z,27.2
2018-12-15T04:15:03.000Z,27.2
2018-12-15T04:17:03.000Z,27.3
2018-12-15T04:19:03.000Z,27.2
2018-12-15T04:20:03.000Z,27.3
2018-12-15T04:22:03.000Z,27.3
2018-12-15T04:23:03.000Z,27.3
2018-12-15T04:25:03.000Z,27.3
2018-12-15T04:27:03.000Z,27.2
2018-12-15T04:28:03.000Z,27.2
2018-12-15T04:30:03.000Z,27.2
2018-12-15T04:32:03.000Z,27.2
2018-12-15T04:34:03.000Z,27.2
2018-12-15T04:35:03.000Z,27.2
2018-12-15T04:37:03.000Z,27.2
2018-12-15T04:39:03.000Z,27.1
2018-12-15T04:40:03.000Z,27.1
2018-12-15T04:42:03.000Z,27.1
2018-12-15T04:43:03.000Z,27.2
2018-12-15T04:45:03.000Z,27.2
2018-12-15T04:47:03.000Z,27.2
2018-12-15T04:48:03.000Z,27.2
2018-12-15T04:50:03.000Z,27.1
2018-12-15T04:51:03.000Z,27.1
2018-12-15T04:52:48.000Z,27.2
2018-12-15T04:54:03.000Z,27.2
2018-12-15T04:55:03.000Z,27.2
2018-12-15T04:57:03.000Z,27.2
2018-12-15T04:58:03.000Z,27.2
2018-12-15T05:00:03.000Z,27.2
2018-12-15T05:01:03.000Z,27.2
2018-12-15T05:03:03.000Z,27.3
2018-12-15T05:05:03.000Z,27.2
2018-12-15T05:06:03.000Z,27.2
2018-12-15T05:07:03.000Z,27.2
2018-12-15T05:09:03.000Z,27.2
2018-12-15T05:10:03.000Z,27.2
2018-12-15T05:12:03.000Z,27.3
2018-12-15T05:14:03.000Z,27.2
2018-12-15T05:15:03.000Z,27.1
2018-12-15T05:17:03.000Z,27.1
2018-12-15T05:18:03.000Z,27.2
2018-12-15T05:20:03.000Z,27.2
2018-12-15T05:22:03.000Z,27.2
2018-12-15T05:23:47.000Z,27.1
2018-12-15T05:25:03.000Z,27.1
2018-12-15T05:26:03.000Z,27.1
2018-12-15T05:27:47.000Z,27.1
2018-12-15T05:29:03.000Z,27.1
2018-12-15T05:30:03.000Z,27.1
2018-12-15T05:32:03.000Z,27.1
2018-12-15T05:34:03.000Z,27
2018-12-15T05:36:03.000Z,27
2018-12-15T05:38:03.000Z,27
2018-12-15T05:39:47.000Z,27
2018-12-15T05:41:03.000Z,27
2018-12-15T05:43:03.000Z,27
2018-12-15T05:44:03.000Z,27
2018-12-15T05:46:03.000Z,27
2018-12-15T05:48:03.000Z,27
2018-12-15T05:50:03.000Z,26.9
2018-12-15T05:51:03.000Z,26.9
2018-12-15T05:53:03.000Z,26.9
2018-12-15T05:54:03.000Z,26.9
2018-12-15T05:56:03.000Z,26.9
2018-12-15T05:58:03.000Z,26.8
2018-12-15T05:59:03.000Z,26.8
2018-12-15T06:00:03.000Z,26.8
2018-12-15T06:02:03.000Z,26.9
2018-12-15T06:03:03.000Z,26.9
2018-12-15T06:04:03.000Z,26.9
2018-12-15T06:06:03.000Z,27
2018-12-15T06:07:03.000Z,27
2018-12-15T06:08:03.000Z,27
2018-12-15T06:09:03.000Z,27.1
2018-12-15T06:11:03.000Z,27.1
2018-12-15T06:12:03.000Z,27.1
2018-12-15T06:13:03.000Z,27.2
2018-12-15T06:15:03.000Z,27.2
2018-12-15T06:17:03.000Z,27.2
2018-12-15T06:19:03.000Z,27
2018-12-15T06:20:03.000Z,27
2018-12-15T06:21:03.000Z,27
2018-12-15T06:23:03.000Z,27
2018-12-15T06:25:03.000Z,26.9
2018-12-15T06:26:03.000Z,26.9
2018-12-15T06:27:48.000Z,27
2018-12-15T06:29:03.000Z,26.9
2018-12-15T06:30:03.000Z,27
2018-12-15T06:32:03.000Z,27
2018-12-15T06:34:03.000Z,27
2018-12-15T06:36:03.000Z,26.9
2018-12-15T06:37:03.000Z,26.9
2018-12-15T06:39:03.000Z,26.9
2018-12-15T06:41:03.000Z,26.8
2018-12-15T06:43:03.000Z,26.8
2018-12-15T06:45:03.000Z,26.8
2018-12-15T06:46:03.000Z,26.8
2018-12-15T06:47:03.000Z,26.9
2018-12-15T06:49:03.000Z,27
2018-12-15T06:51:03.000Z,27
2018-12-15T06:52:03.000Z,27
2018-12-15T06:54:03.000Z,27
2018-12-15T06:55:48.000Z,27
2018-12-15T06:57:03.000Z,27
2018-12-15T06:59:03.000Z,27
2018-12-15T07:00:03.000Z,27
2018-12-15T07:01:03.000Z,27
2018-12-15T07:02:03.000Z,27.1
2018-12-15T07:03:03.000Z,27.2
2018-12-15T07:04:48.000Z,27.2
2018-12-15T07:06:03.000Z,27.2
2018-12-15T07:08:03.000Z,27.1
2018-12-15T07:09:03.000Z,27.1
2018-12-15T07:11:03.000Z,27.1
2018-12-15T07:12:03.000Z,27.1
2018-12-15T07:14:03.000Z,27.1
2018-12-15T07:16:03.000Z,27.1
2018-12-15T07:17:03.000Z,27
2018-12-15T07:18:48.000Z,27
2018-12-15T07:20:03.000Z,26.9
2018-12-15T07:21:03.000Z,26.9
2018-12-15T07:22:03.000Z,26.9
2018-12-15T07:24:03.000Z,27
2018-12-15T07:25:03.000Z,27
2018-12-15T07:26:48.000Z,27
2018-12-15T07:28:03.000Z,27
2018-12-15T07:30:03.000Z,26.9
2018-12-15T07:32:03.000Z,26.9
2018-12-15T07:33:03.000Z,26.9
2018-12-15T07:34:03.000Z,26.9
2018-12-15T07:36:03.000Z,26.9
2018-12-15T07:37:03.000Z,26.9
2018-12-15T07:39:03.000Z,27
2018-12-15T07:40:03.000Z,27
2018-12-15T07:41:03.000Z,27
2018-12-15T07:43:03.000Z,27.1
2018-12-15T07:44:03.000Z,27.1
2018-12-15T07:46:03.000Z,27.1
2018-12-15T07:47:03.000Z,27.1
2018-12-15T07:48:48.000Z,27.1
2018-12-15T07:50:02.000Z,27
2018-12-15T07:51:03.000Z,26.9
2018-12-15T07:53:03.000Z,26.8
2018-12-15T07:55:03.000Z,26.8
2018-12-15T07:56:03.000Z,26.8
2018-12-15T07:57:03.000Z,26.9
2018-12-15T07:59:03.000Z,27
2018-12-15T08:00:03.000Z,27
2018-12-15T08:02:03.000Z,27
2018-12-15T08:03:03.000Z,27
2018-12-15T08:04:03.000Z,27.1
2018-12-15T08:06:03.000Z,27.1
2018-12-15T08:07:47.000Z,27.1
2018-12-15T08:09:03.000Z,27
2018-12-15T08:10:03.000Z,27
2018-12-15T08:11:03.000Z,27
2018-12-15T08:13:03.000Z,27
2018-12-15T08:15:03.000Z,26.9
2018-12-15T08:16:47.000Z,26.9
2018-12-15T08:18:03.000Z,26.8
2018-12-15T08:20:03.000Z,26.8
2018-12-15T08:21:03.000Z,26.8
2018-12-15T08:23:03.000Z,26.9
2018-12-15T08:24:03.000Z,26.9
2018-12-15T08:26:03.000Z,26.9
2018-12-15T08:27:03.000Z,26.9
2018-12-15T08:28:47.000Z,27
2018-12-15T08:30:03.000Z,27
2018-12-15T08:31:03.000Z,27
2018-12-15T08:32:03.000Z,27
2018-12-15T08:34:03.000Z,27
2018-12-15T08:36:03.000Z,26.9
2018-12-15T08:38:03.000Z,26.9
2018-12-15T08:40:03.000Z,26.8
2018-12-15T08:42:03.000Z,26.8
2018-12-15T08:43:03.000Z,26.8
2018-12-15T08:44:03.000Z,26.9
2018-12-15T08:45:48.000Z,26.9
2018-12-15T08:47:03.000Z,26.8
2018-12-15T08:48:03.000Z,26.7
2018-12-15T08:49:03.000Z,26.7
2018-12-15T08:51:03.000Z,26.7
2018-12-15T08:53:03.000Z,26.8
2018-12-15T08:55:03.000Z,26.8
2018-12-15T08:56:03.000Z,26.8
2018-12-15T08:57:03.000Z,26.8
2018-12-15T08:58:03.000Z,26.9
2018-12-15T09:00:03.000Z,26.9
2018-12-15T09:01:03.000Z,27
2018-12-15T09:02:03.000Z,27
2018-12-15T09:04:03.000Z,27.1
2018-12-15T09:06:03.000Z,27
2018-12-15T09:07:03.000Z,27
2018-12-15T09:08:03.000Z,27
2018-12-15T09:10:03.000Z,27
2018-12-15T09:12:03.000Z,26.9
2018-12-15T09:14:03.000Z,26.8
2018-12-15T09:16:03.000Z,26.7
2018-12-15T09:17:03.000Z,26.7
2018-12-15T09:19:03.000Z,26.7
2018-12-15T09:20:03.000Z,26.7
2018-12-15T09:22:03.000Z,26.8
2018-12-15T09:24:03.000Z,26.6
2018-12-15T09:25:03.000Z,26.6
2018-12-15T09:26:03.000Z,26.7
2018-12-15T09:27:48.000Z,26.8
2018-12-15T09:29:03.000Z,26.8
2018-12-15T09:30:03.000Z,26.8
2018-12-15T09:32:03.000Z,26.8
2018-12-15T09:33:03.000Z,26.8
2018-12-15T09:35:03.000Z,26.8
2018-12-15T09:36:03.000Z,26.9
2018-12-15T09:38:03.000Z,26.9
2018-12-15T09:39:03.000Z,26.9
2018-12-15T09:41:03.000Z,27
2018-12-15T09:42:03.000Z,27
2018-12-15T09:44:03.000Z,26.9
2018-12-15T09:46:03.000Z,26.9
2018-12-15T09:47:03.000Z,26.9
2018-12-15T09:48:03.000Z,26.9
2018-12-15T09:50:03.000Z,26.9
2018-12-15T09:51:03.000Z,26.9
2018-12-15T09:53:03.000Z,26.9
2018-12-15T09:54:03.000Z,26.9
2018-12-15T09:56:03.000Z,27
2018-12-15T09:57:03.000Z,27
2018-12-15T09:59:03.000Z,27
2018-12-15T10:00:03.000Z,26.9
2018-12-15T10:01:03.000Z,26.9
2018-12-15T10:02:03.000Z,27
2018-12-15T10:04:03.000Z,27
2018-12-15T10:06:03.000Z,27
2018-12-15T10:08:03.000Z,26.9
2018-12-15T10:09:03.000Z,26.9
2018-12-15T10:11:03.000Z,27
2018-12-15T10:13:03.000Z,26.9
2018-12-15T10:15:03.000Z,26.8
2018-12-15T10:17:03.000Z,26.8
2018-12-15T10:19:03.000Z,26.8
2018-12-15T10:21:03.000Z,26.7
2018-12-15T10:23:03.000Z,26.7
2018-12-15T10:24:03.000Z,26.7
2018-12-15T10:25:03.000Z,26.8
2018-12-15T10:26:03.000Z,26.9
2018-12-15T10:28:03.000Z,27
2018-12-15T10:30:03.000Z,27
2018-12-15T10:32:03.000Z,26.9
2018-12-15T10:34:03.000Z,26.9
2018-12-15T10:36:03.000Z,26.9
2018-12-15T10:37:03.000Z,26.9
2018-12-15T10:39:03.000Z,26.8
2018-12-15T10:40:03.000Z,26.8
2018-12-15T10:41:03.000Z,26.9
2018-12-15T10:42:48.000Z,27
2018-12-15T10:44:03.000Z,27
2018-12-15T10:46:03.000Z,27
2018-12-15T10:47:03.000Z,27
2018-12-15T10:48:48.000Z,27
2018-12-15T10:50:03.000Z,26.9
2018-12-15T10:52:03.000Z,26.9
2018-12-15T10:54:03.000Z,26.8
2018-12-15T10:56:03.000Z,26.8
2018-12-15T10:58:03.000Z,26.8
2018-12-15T11:08:51.000Z,25.7
2018-12-15T11:10:51.000Z,25.9
2018-12-15T11:11:51.000Z,26
2018-12-15T11:12:51.000Z,26.1
2018-12-15T11:13:51.000Z,26.3
2018-12-15T11:14:51.000Z,26.5
2018-12-15T11:15:51.000Z,26.6
2018-12-15T11:17:35.000Z,26.7
2018-12-15T11:18:51.000Z,26.7
2018-12-15T11:20:51.000Z,26.7
2018-12-15T11:21:51.000Z,26.7
2018-12-15T11:23:51.000Z,26.7
2018-12-15T11:25:51.000Z,26.8
2018-12-15T11:26:51.000Z,26.8
2018-12-15T11:27:51.000Z,26.8
2018-12-15T11:29:51.000Z,26.8
2018-12-15T11:30:51.000Z,26.8
2018-12-15T11:32:51.000Z,26.8
2018-12-15T11:33:51.000Z,26.8
2018-12-15T11:35:51.000Z,26.8
2018-12-15T11:37:51.000Z,26.8
2018-12-15T11:38:51.000Z,26.8
2018-12-15T11:39:51.000Z,26.9
2018-12-15T11:40:51.000Z,27
2018-12-15T11:41:51.000Z,27
2018-12-15T11:43:51.000Z,27.1
2018-12-15T11:45:51.000Z,27.1
2018-12-15T11:47:36.000Z,27
2018-12-15T11:48:51.000Z,27
2018-12-15T11:49:51.000Z,27
2018-12-15T11:51:35.000Z,27
2018-12-15T11:52:51.000Z,27
2018-12-15T11:54:51.000Z,26.9
2018-12-15T11:55:51.000Z,26.9
2018-12-15T11:56:52.000Z,26.9
2018-12-15T11:58:50.000Z,27
2018-12-15T12:00:50.000Z,26.9
2018-12-15T12:01:50.000Z,26.9
2018-12-15T12:03:50.000Z,26.9
2018-12-15T12:05:50.000Z,26.8
2018-12-15T12:06:50.000Z,26.8
2018-12-15T12:08:50.000Z,26.8
2018-12-15T12:09:50.000Z,26.8
2018-12-15T12:10:50.000Z,26.9
2018-12-15T12:12:51.000Z,26.9
2018-12-15T12:13:51.000Z,27
2018-12-15T12:15:51.000Z,27
2018-12-15T12:17:51.000Z,26.9
2018-12-15T12:19:35.000Z,26.9
2018-12-15T12:20:51.000Z,26.8
2018-12-15T12:21:51.000Z,26.8
2018-12-15T12:23:51.000Z,26.9
2018-12-15T12:25:51.000Z,26.8
2018-12-15T12:26:51.000Z,26.8
2018-12-15T12:27:51.000Z,26.8
2018-12-15T12:29:51.000Z,26.9
2018-12-15T12:30:51.000Z,26.9
2018-12-15T12:32:51.000Z,27
2018-12-15T12:33:51.000Z,27
2018-12-15T12:34:51.000Z,27
2018-12-15T12:36:51.000Z,27
2018-12-15T12:38:51.000Z,27
2018-12-15T12:40:51.000Z,26.8
2018-12-15T12:41:51.000Z,26.8
2018-12-15T12:42:51.000Z,26.8
2018-12-15T12:44:51.000Z,26.8
2018-12-15T12:45:51.000Z,26.8
2018-12-15T12:47:51.000Z,26.9
2018-12-15T12:49:51.000Z,26.9
2018-12-15T12:51:35.000Z,26.8
2018-12-15T12:52:51.000Z,26.7
2018-12-15T12:54:51.000Z,26.7
2018-12-15T12:56:51.000Z,26.7
2018-12-15T12:58:50.000Z,26.8
2018-12-15T12:59:50.000Z,26.9
2018-12-15T13:00:50.000Z,26.9
2018-12-15T13:01:50.000Z,27
2018-12-15T13:03:50.000Z,27
2018-12-15T13:05:50.000Z,26.9
2018-12-15T13:06:50.000Z,26.9
2018-12-15T13:07:50.000Z,26.9
2018-12-15T13:09:35.000Z,26.9
2018-12-15T13:10:50.000Z,26.9
2018-12-15T13:11:50.000Z,26.9
2018-12-15T13:13:50.000Z,26.9
2018-12-15T13:15:50.000Z,26.8
2018-12-15T13:16:51.000Z,26.8
2018-12-15T13:18:51.000Z,26.9
2018-12-15T13:19:51.000Z,26.9
2018-12-15T13:21:35.000Z,26.9
2018-12-15T13:22:51.000Z,26.9
2018-12-15T13:24:35.000Z,26.9
2018-12-15T13:25:51.000Z,26.9
2018-12-15T13:27:50.000Z,26.9
2018-12-15T13:28:50.000Z,26.9
2018-12-15T13:30:50.000Z,26.8
2018-12-15T13:32:50.000Z,26.7
2018-12-15T13:33:50.000Z,26.7
2018-12-15T13:35:50.000Z,26.8
2018-12-15T13:36:50.000Z,26.8
2018-12-15T13:38:50.000Z,26.8
2018-12-15T13:39:50.000Z,26.8
2018-12-15T13:41:50.000Z,26.8
2018-12-15T13:42:50.000Z,26.8
2018-12-15T13:44:50.000Z,26.9
2018-12-15T13:45:50.000Z,26.9
2018-12-15T13:47:50.000Z,26.9
2018-12-15T13:49:50.000Z,26.9
2018-12-15T13:51:50.000Z,26.8
2018-12-15T13:52:50.000Z,26.7
2018-12-15T13:54:50.000Z,26.7
2018-12-15T13:55:50.000Z,26.7
2018-12-15T13:57:50.000Z,26.8
2018-12-15T13:59:50.000Z,26.7
2018-12-15T14:00:50.000Z,26.7
2018-12-15T14:01:50.000Z,26.8
2018-12-15T14:02:50.000Z,26.8
2018-12-15T14:04:50.000Z,26.8
2018-12-15T14:05:50.000Z,26.8
2018-12-15T14:07:50.000Z,26.8
2018-12-15T14:09:50.000Z,26.7
2018-12-15T14:11:50.000Z,26.6
2018-12-15T14:13:50.000Z,26.5
2018-12-15T14:14:50.000Z,26.5
2018-12-15T14:16:50.000Z,26.5
2018-12-15T14:18:50.000Z,26.4
2018-12-15T14:20:51.000Z,26.4
2018-12-15T14:22:51.000Z,26.4
2018-12-15T14:23:51.000Z,26.4
2018-12-15T14:24:51.000Z,26.5
2018-12-15T14:26:51.000Z,26.6
2018-12-15T14:28:51.000Z,26.5
2018-12-15T14:29:51.000Z,26.5
2018-12-15T14:31:51.000Z,26.5
2018-12-15T14:33:51.000Z,26.5
2018-12-15T14:35:51.000Z,26.5
2018-12-15T14:37:51.000Z,26.4
2018-12-15T14:39:51.000Z,26.4
2018-12-15T14:40:51.000Z,26.3
2018-12-15T14:42:51.000Z,26.3
2018-12-15T14:43:51.000Z,26.4
2018-12-15T14:45:51.000Z,26.4
2018-12-15T14:47:51.000Z,26.4
2018-12-15T14:48:51.000Z,26.4
2018-12-15T14:49:51.000Z,26.4
2018-12-15T14:50:51.000Z,26.5
2018-12-15T14:52:36.000Z,26.6
2018-12-15T14:53:51.000Z,26.6
2018-12-15T14:54:51.000Z,26.6
2018-12-15T14:56:51.000Z,26.6
2018-12-15T14:58:51.000Z,26.5
2018-12-15T14:59:51.000Z,26.5
2018-12-15T15:01:51.000Z,26.5
2018-12-15T15:03:51.000Z,26.5
2018-12-15T15:04:51.000Z,26.5
2018-12-15T15:05:51.000Z,26.6
2018-12-15T15:07:51.000Z,26.6
2018-12-15T15:09:51.000Z,26.6
2018-12-15T15:10:51.000Z,26.6
2018-12-15T15:11:51.000Z,26.6
2018-12-15T15:12:51.000Z,26.6
2018-12-15T15:14:51.000Z,26.6
2018-12-15T15:16:51.000Z,26.4
2018-12-15T15:17:51.000Z,26.4
2018-12-15T15:19:51.000Z,26.4
2018-12-15T15:20:51.000Z,26.4
2018-12-15T15:22:51.000Z,26.5
2018-12-15T15:23:51.000Z,26.5
2018-12-15T15:25:51.000Z,26.5
2018-12-15T15:27:51.000Z,26.4
2018-12-15T15:29:36.000Z,26.4
2018-12-15T15:30:51.000Z,26.3
2018-12-15T15:32:51.000Z,26.3
2018-12-15T15:34:51.000Z,26.3
2018-12-15T15:35:51.000Z,26.3
2018-12-15T15:36:51.000Z,26.4
2018-12-15T15:37:51.000Z,26.5
2018-12-15T15:39:51.000Z,26.5
2018-12-15T15:41:51.000Z,26.5
2018-12-15T15:43:51.000Z,26.4
2018-12-15T15:45:51.000Z,26.3
2018-12-15T15:47:51.000Z,26.3
2018-12-15T15:49:51.000Z,26.3
2018-12-15T15:50:51.000Z,26.3
2018-12-15T15:52:51.000Z,26.4
2018-12-15T15:53:51.000Z,26.4
2018-12-15T15:54:51.000Z,26.4
2018-12-15T15:55:51.000Z,26.5
2018-12-15T15:57:51.000Z,26.5
2018-12-15T15:59:51.000Z,26.5
2018-12-15T16:01:51.000Z,26.3
2018-12-15T16:02:51.000Z,26.3
2018-12-15T16:04:51.000Z,26.3
2018-12-15T16:06:51.000Z,26.3
2018-12-15T16:08:51.000Z,26.2
2018-12-15T16:09:51.000Z,26.2
2018-12-15T16:11:51.000Z,26.2
2018-12-15T16:12:51.000Z,26.3
2018-12-15T16:13:51.000Z,26.3
2018-12-15T16:15:51.000Z,26.4
2018-12-15T16:16:51.000Z,26.4
2018-12-15T16:18:51.000Z,26.4
2018-12-15T16:20:36.000Z,26.3
2018-12-15T16:21:51.000Z,26.1
2018-12-15T16:22:51.000Z,26.1
2018-12-15T16:24:51.000Z,26.1
2018-12-15T16:25:51.000Z,26.2
2018-12-15T16:26:51.000Z,26.2
2018-12-15T16:28:51.000Z,26.3
2018-12-15T16:29:51.000Z,26.4
2018-12-15T16:31:51.000Z,26.4
2018-12-15T16:32:51.000Z,26.3
2018-12-15T16:33:51.000Z,26.3
2018-12-15T16:34:51.000Z,26.4
2018-12-15T16:36:51.000Z,26.3
2018-12-15T16:37:51.000Z,26.3
2018-12-15T16:39:51.000Z,26.4
2018-12-15T16:40:51.000Z,26.4
2018-12-15T16:42:51.000Z,26.3
2018-12-15T16:44:51.000Z,26.2
2018-12-15T16:45:51.000Z,26.2
2018-12-15T16:47:51.000Z,26.2
2018-12-15T16:48:51.000Z,26.2
2018-12-15T16:49:51.000Z,26.3
2018-12-15T16:51:51.000Z,26.4
2018-12-15T16:52:51.000Z,26.4
2018-12-15T16:53:51.000Z,26.4
2018-12-15T16:55:51.000Z,26.5
2018-12-15T16:57:51.000Z,26.5
2018-12-15T16:59:51.000Z,26.4
2018-12-15T17:00:51.000Z,26.4
2018-12-15T17:01:51.000Z,26.4
2018-12-15T17:02:51.000Z,26.5
2018-12-15T17:04:36.000Z,26.5
2018-12-15T17:05:51.000Z,26.5
2018-12-15T17:07:51.000Z,26.4
2018-12-15T17:08:51.000Z,26.4
2018-12-15T17:10:36.000Z,26.4
2018-12-15T17:11:36.000Z,26.4
2018-12-15T17:12:51.000Z,26.3
2018-12-15T17:14:51.000Z,26.2
2018-12-15T17:15:51.000Z,26.2
2018-12-15T17:16:51.000Z,26.2
2018-12-15T17:17:51.000Z,26.3
2018-12-15T17:19:51.000Z,26.4
2018-12-15T17:21:51.000Z,26.4
2018-12-15T17:23:51.000Z,26.3
2018-12-15T17:25:36.000Z,26.2
2018-12-15T17:26:51.000Z,26.2
2018-12-15T17:27:51.000Z,26.2
2018-12-15T17:29:51.000Z,26.3
2018-12-15T17:31:50.000Z,26.2
2018-12-15T17:33:50.000Z,26.1
2018-12-15T17:34:50.000Z,26.2
2018-12-15T17:36:50.000Z,26.2
2018-12-15T17:37:50.000Z,26.2
2018-12-15T17:38:50.000Z,26.3
2018-12-15T17:40:35.000Z,26.4
2018-12-15T17:41:50.000Z,26.3
2018-12-15T17:43:35.000Z,26.3
2018-12-15T17:44:50.000Z,26.3
2018-12-15T17:46:35.000Z,26.2
2018-12-15T17:47:50.000Z,26.2
2018-12-15T17:48:50.000Z,26.2
2018-12-15T17:50:50.000Z,26.2
2018-12-15T17:51:50.000Z,26.2
2018-12-15T17:52:50.000Z,26.2
2018-12-15T17:54:50.000Z,26.2
2018-12-15T17:55:50.000Z,26.3
2018-12-15T17:57:50.000Z,26.3
2018-12-15T17:59:35.000Z,26.3
2018-12-15T18:00:50.000Z,26.2
2018-12-15T18:01:50.000Z,26.2
2018-12-15T18:03:50.000Z,26.3
2018-12-15T18:04:50.000Z,26.3
2018-12-15T18:06:50.000Z,26.3
2018-12-15T18:08:50.000Z,26.2
2018-12-15T18:10:50.000Z,26.2
2018-12-15T18:12:50.000Z,26.2
2018-12-15T18:13:55.000Z,26.2
2018-12-15T18:15:55.000Z,26.3
2018-12-15T18:17:55.000Z,26.3
2018-12-15T18:19:55.000Z,26.2
2018-12-15T18:21:55.000Z,26.2
2018-12-15T18:23:55.000Z,26.2
2018-12-15T18:24:55.000Z,26.2
2018-12-15T18:26:55.000Z,26.2
2018-12-15T18:28:55.000Z,26.2
2018-12-15T18:29:55.000Z,26.2
2018-12-15T18:31:55.000Z,26.3
2018-12-15T18:33:55.000Z,26.2
2018-12-15T18:34:56.000Z,26.2
2018-12-15T18:36:56.000Z,26.3
2018-12-15T18:38:40.000Z,26.3
2018-12-15T18:39:56.000Z,26.2
2018-12-15T18:41:56.000Z,26.2
2018-12-15T18:42:56.000Z,26.2
2018-12-15T18:43:56.000Z,26.2
2018-12-15T18:45:56.000Z,26.3
2018-12-15T18:47:56.000Z,26.3
2018-12-15T18:48:56.000Z,26.3
2018-12-15T18:49:56.000Z,26.3
2018-12-15T18:51:56.000Z,26.3
2018-12-15T18:53:56.000Z,26.2
2018-12-15T18:55:56.000Z,26.2
2018-12-15T18:56:56.000Z,26.2
2018-12-15T18:58:56.000Z,26.2
2018-12-15T19:00:56.000Z,26.2
2018-12-15T19:01:56.000Z,26.2
2018-12-15T19:03:56.000Z,26.2
2018-12-15T19:05:56.000Z,26.2
2018-12-15T19:06:56.000Z,26.2
2018-12-15T19:08:56.000Z,26.2
2018-12-15T19:10:56.000Z,26.2
2018-12-15T19:11:56.000Z,26.1
2018-12-15T19:13:56.000Z,26.1
2018-12-15T19:15:56.000Z,26
2018-12-15T19:17:56.000Z,25.9
2018-12-15T19:19:56.000Z,25.8
2018-12-15T19:20:56.000Z,25.8
2018-12-15T19:22:56.000Z,25.9
2018-12-15T19:23:56.000Z,25.9
2018-12-15T19:25:56.000Z,26
2018-12-15T19:26:56.000Z,26
2018-12-15T19:28:56.000Z,26.1
2018-12-15T19:29:56.000Z,26.1
2018-12-15T19:31:56.000Z,26.2
2018-12-15T19:32:56.000Z,26.2
2018-12-15T19:34:56.000Z,26.2
2018-12-15T19:35:56.000Z,26.1
2018-12-15T19:37:56.000Z,26.2
2018-12-15T19:39:56.000Z,26.2
2018-12-15T19:40:56.000Z,26.1
2018-12-15T19:41:56.000Z,26.1
2018-12-15T19:43:56.000Z,26.1
2018-12-15T19:45:56.000Z,26.1
2018-12-15T19:47:56.000Z,26
2018-12-15T19:49:56.000Z,26
2018-12-15T19:51:56.000Z,26
2018-12-15T19:52:56.000Z,26
2018-12-15T19:53:56.000Z,26.1
2018-12-15T19:55:56.000Z,26.2
2018-12-15T19:56:56.000Z,26.2
2018-12-15T19:58:56.000Z,26.2
2018-12-15T20:00:56.000Z,26.2
2018-12-15T20:02:56.000Z,26.1
2018-12-15T20:04:56.000Z,26.1
2018-12-15T20:05:56.000Z,26.1
2018-12-15T20:07:56.000Z,26.1
2018-12-15T20:09:41.000Z,26
2018-12-15T20:10:56.000Z,26
2018-12-15T20:11:56.000Z,26
2018-12-15T20:12:56.000Z,26.1
2018-12-15T20:14:56.000Z,26.2
2018-12-15T20:15:56.000Z,26.2
2018-12-15T20:17:56.000Z,26.2
2018-12-15T20:18:56.000Z,26.2
2018-12-15T20:19:56.000Z,26.2
2018-12-15T20:21:56.000Z,26.1
2018-12-15T20:22:56.000Z,26.1
2018-12-15T20:24:56.000Z,26.1
2018-12-15T20:26:56.000Z,26.1
2018-12-15T20:27:56.000Z,26.1
2018-12-15T20:28:56.000Z,26.2
2018-12-15T20:30:56.000Z,26.2
2018-12-15T20:32:56.000Z,26.2
2018-12-15T20:33:56.000Z,26.2
2018-12-15T20:35:56.000Z,26.2
2018-12-15T20:37:56.000Z,26.1
2018-12-15T20:38:56.000Z,26.1
2018-12-15T20:40:56.000Z,26
2018-12-15T20:42:40.000Z,26
2018-12-15T20:43:55.000Z,25.8
2018-12-15T20:45:55.000Z,25.6
2018-12-15T20:46:55.000Z,25.6